Time;durP1;ratioP1;P1;durP2;ratioP2;P2;SDS_P1;SDS_P2;PMS_P1;PMS_P2;Temp;Humidity;BMP_temperature;BMP_pressure;BME280_temperature;BME280_humidity;BME280_pressure;Samples;Min_cycle;Max_cycle;Signal;HPM_P1;HPM_P2
2021/12/21 00:02:02;;;;;;;4.07;1.92;;;21.90;31.80;;;;;;5054106;28;20091;-48
2021/12/21 00:04:28;;;;;;;3.08;1.63;;;21.90;31.70;;;;;;5053642;28;20025;-48
2021/12/21 00:06:56;;;;;;;2.78;1.70;;;21.80;31.70;;;;;;5046933;28;20036;-47
2021/12/21 00:09:22;;;;;;;3.22;1.65;;;21.90;31.70;;;;;;5046488;28;20029;-51
2021/12/21 00:11:49;;;;;;;3.08;1.48;;;21.80;31.60;;;;;;5054078;28;20043;-49
2021/12/21 00:17:01;;;;;;;3.15;1.70;;;21.80;31.60;;;;;;5053396;28;20079;-47
2021/12/21 00:19:45;;;;;;;2.45;1.40;;;21.80;31.60;;;;;;5042724;28;20041;-50
2021/12/21 00:22:47;;;;;;;3.90;2.13;;;21.80;31.60;;;;;;5036722;28;20055;-47
2021/12/21 00:25:00;;;;;;;2.88;1.70;;;21.80;31.60;;;;;;5051965;28;20036;-47
2021/12/21 00:27:25;;;;;;;2.80;1.50;;;21.80;31.50;;;;;;5054609;28;20047;-52
2021/12/21 00:29:51;;;;;;;2.92;1.70;;;21.80;31.50;;;;;;5028472;28;20033;-47
2021/12/21 00:32:17;;;;;;;3.10;1.48;;;21.70;31.40;;;;;;5053957;28;20098;-49
2021/12/21 00:34:43;;;;;;;3.88;2.00;;;21.70;31.40;;;;;;5047470;28;20086;-51
2021/12/21 00:37:08;;;;;;;2.60;1.63;;;21.70;31.40;;;;;;5053981;28;20100;-56
2021/12/21 00:39:34;;;;;;;3.90;1.85;;;21.80;31.40;;;;;;5040722;28;20025;-56
2021/12/21 00:42:01;;;;;;;3.08;1.58;;;21.70;31.30;;;;;;5052339;28;20037;-53
2021/12/21 00:44:28;;;;;;;3.08;1.73;;;21.70;31.30;;;;;;5052551;28;20037;-51
2021/12/21 00:46:54;;;;;;;2.65;1.65;;;21.70;31.20;;;;;;5054469;28;20079;-54
2021/12/21 00:49:21;;;;;;;3.08;1.70;;;21.70;31.20;;;;;;5047654;28;20431;-53
2021/12/21 00:51:47;;;;;;;3.28;1.67;;;21.70;31.20;;;;;;5054405;28;20040;-46
2021/12/21 00:54:15;;;;;;;2.78;1.60;;;21.70;31.10;;;;;;5056989;28;20444;-49
2021/12/21 00:56:41;;;;;;;3.47;1.85;;;21.70;31.10;;;;;;5049728;28;20115;-46
2021/12/21 00:59:07;;;;;;;2.25;1.42;;;21.70;31.00;;;;;;5056405;28;20048;-52
2021/12/21 01:01:35;;;;;;;4.03;1.60;;;21.70;31.00;;;;;;5043492;28;20048;-46
2021/12/21 01:04:05;;;;;;;2.78;1.65;;;21.70;31.00;;;;;;5056559;28;20040;-48
2021/12/21 01:06:44;;;;;;;3.67;1.30;;;21.60;30.90;;;;;;5043560;28;20529;-47
2021/12/21 01:11:59;;;;;;;2.28;1.38;;;21.60;30.90;;;;;;5056835;28;20052;-51
2021/12/21 01:20:06;;;;;;;1.90;1.50;;;21.60;30.90;;;;;;4991668;28;20068;-50
2021/12/21 01:25:49;;;;;;;2.92;1.50;;;21.60;30.80;;;;;;5025400;28;20033;-49
2021/12/21 01:30:54;;;;;;;3.33;1.52;;;21.60;30.70;;;;;;5044809;28;20110;-45
2021/12/21 01:36:14;;;;;;;3.20;1.40;;;21.60;30.70;;;;;;5052695;28;20079;-53
2021/12/21 01:38:56;;;;;;;2.83;1.60;;;21.50;30.60;;;;;;5046354;28;20112;-49
2021/12/21 01:41:36;;;;;;;2.30;1.50;;;21.50;30.60;;;;;;5056798;28;20087;-50
2021/12/21 01:52:11;;;;;;;3.38;1.77;;;21.50;30.50;;;;;;5054366;28;20041;-47
2021/12/21 01:54:37;;;;;;;3.05;1.77;;;21.50;30.50;;;;;;5038366;28;20321;-52
2021/12/21 01:57:05;;;;;;;3.05;1.58;;;21.40;30.40;;;;;;5055864;28;20021;-53
2021/12/21 01:59:32;;;;;;;2.70;1.65;;;21.50;30.40;;;;;;5055472;28;20021;-48
2021/12/21 02:01:58;;;;;;;2.00;1.52;;;21.40;30.40;;;;;;5055565;28;20112;-47
2021/12/21 02:04:24;;;;;;;2.38;1.58;;;21.40;30.30;;;;;;5037598;28;20120;-46
2021/12/21 02:06:52;;;;;;;2.70;1.60;;;21.40;30.30;;;;;;5052132;28;20406;-48
2021/12/21 02:09:19;;;;;;;3.05;1.50;;;21.40;30.30;;;;;;5036757;28;20037;-45
2021/12/21 02:11:48;;;;;;;3.33;1.70;;;21.40;30.20;;;;;;5034926;28;20360;-47
2021/12/21 02:14:15;;;;;;;2.95;1.70;;;21.40;30.30;;;;;;5056359;28;20024;-49
2021/12/21 02:16:53;;;;;;;3.40;1.58;;;21.40;30.20;;;;;;5055969;28;20021;-47
2021/12/21 02:19:28;;;;;;;3.55;1.70;;;21.40;30.20;;;;;;5036162;28;20040;-49
2021/12/21 02:22:05;;;;;;;2.70;1.55;;;21.40;30.20;;;;;;5053781;28;20029;-50
2021/12/21 02:24:39;;;;;;;2.95;1.52;;;21.40;30.20;;;;;;5057026;28;20032;-53
2021/12/21 02:27:25;;;;;;;2.33;1.55;;;21.40;30.20;;;;;;5048765;28;20049;-47
2021/12/21 02:29:51;;;;;;;2.83;1.33;;;21.40;30.20;;;;;;5037774;28;20072;-46
2021/12/21 02:32:17;;;;;;;3.20;1.60;;;21.40;30.10;;;;;;5054774;28;20060;-47
2021/12/21 02:34:44;;;;;;;3.15;1.70;;;21.40;30.10;;;;;;5056383;28;20067;-51
2021/12/21 02:37:11;;;;;;;4.05;1.70;;;21.40;30.80;;;;;;5055669;28;20427;-49
2021/12/21 02:39:38;;;;;;;1.88;1.42;;;21.40;30.10;;;;;;5056354;28;20355;-46
2021/12/21 02:42:05;;;;;;;2.50;1.40;;;21.30;30.00;;;;;;5055071;28;20020;-50
2021/12/21 02:44:31;;;;;;;3.00;1.60;;;21.40;30.10;;;;;;5050428;28;20017;-48
2021/12/21 02:46:58;;;;;;;4.60;1.33;;;21.30;30.00;;;;;;5054255;28;20041;-49
2021/12/21 02:49:24;;;;;;;1.83;1.50;;;21.30;30.00;;;;;;5037859;28;20029;-54
2021/12/21 02:51:50;;;;;;;2.30;1.20;;;21.40;30.00;;;;;;5055304;28;20087;-53
2021/12/21 02:54:18;;;;;;;2.28;1.20;;;21.30;30.00;;;;;;5040727;28;20312;-54
2021/12/21 02:56:44;;;;;;;2.38;1.40;;;21.30;30.00;;;;;;5038833;28;20400;-56
2021/12/21 02:59:10;;;;;;;1.67;1.27;;;21.30;30.00;;;;;;5037871;28;20131;-51
2021/12/21 03:01:36;;;;;;;2.38;1.42;;;21.30;30.00;;;;;;5054962;28;20375;-54
2021/12/21 03:04:04;;;;;;;2.85;1.60;;;21.30;30.00;;;;;;5054975;28;20099;-50
2021/12/21 03:12:11;;;;;;;2.00;1.30;;;21.20;29.90;;;;;;5055598;28;19913;-54
2021/12/21 03:14:38;;;;;;;2.70;1.40;;;21.20;30.00;;;;;;5052434;28;20104;-50
2021/12/21 03:17:05;;;;;;;2.63;1.27;;;21.20;30.00;;;;;;5054554;28;20048;-55
2021/12/21 03:19:31;;;;;;;2.30;1.20;;;21.20;29.90;;;;;;5051913;28;20025;-54
2021/12/21 03:21:57;;;;;;;2.33;1.20;;;21.20;29.90;;;;;;5055330;28;20090;-50
2021/12/21 03:24:23;;;;;;;3.65;1.63;;;21.20;29.90;;;;;;5047594;28;20026;-48
2021/12/21 03:26:50;;;;;;;2.75;1.50;;;21.20;29.90;;;;;;5052132;28;20120;-51
2021/12/21 03:29:16;;;;;;;2.15;1.10;;;21.20;29.90;;;;;;5054360;28;20020;-48
2021/12/21 03:31:42;;;;;;;2.60;1.50;;;21.20;29.90;;;;;;5054813;28;20106;-46
2021/12/21 03:34:08;;;;;;;2.78;1.20;;;21.20;29.90;;;;;;5047822;28;20063;-48
2021/12/21 03:36:34;;;;;;;2.75;1.38;;;21.20;29.90;;;;;;5031571;28;20444;-54
2021/12/21 03:39:09;;;;;;;3.08;1.38;;;21.20;29.90;;;;;;5054456;28;20037;-48
2021/12/21 03:41:44;;;;;;;3.33;1.30;;;21.20;29.90;;;;;;5055059;28;20436;-50
2021/12/21 03:44:10;;;;;;;1.92;1.30;;;21.20;29.90;;;;;;5048091;28;20405;-51
2021/12/21 03:46:44;;;;;;;2.03;1.20;;;21.20;29.90;;;;;;5054300;28;20067;-51
2021/12/21 03:49:38;;;;;;;3.15;1.40;;;21.20;29.90;;;;;;5045571;28;20341;-48
2021/12/21 03:51:56;;;;;;;2.90;1.50;;;21.20;29.90;;;;;;5051012;28;20094;-50
2021/12/21 03:54:23;;;;;;;3.25;1.50;;;21.20;29.90;;;;;;5043811;28;20029;-51
2021/12/21 03:56:50;;;;;;;2.47;1.50;;;21.20;29.90;;;;;;5049600;28;20029;-49
2021/12/21 03:59:17;;;;;;;2.65;1.35;;;21.20;29.90;;;;;;5036506;28;20336;-48
2021/12/21 04:01:43;;;;;;;1.80;1.10;;;21.10;29.90;;;;;;5054980;28;20071;-46
2021/12/21 04:04:09;;;;;;;3.10;1.33;;;21.20;29.90;;;;;;5053734;28;20041;-50
2021/12/21 04:06:36;;;;;;;2.67;1.50;;;21.10;29.90;;;;;;5040791;28;20021;-49
2021/12/21 04:09:04;;;;;;;2.17;1.30;;;21.10;29.90;;;;;;5035655;28;20033;-49
2021/12/21 04:11:31;;;;;;;2.92;1.60;;;21.10;29.80;;;;;;5035029;28;20393;-50
2021/12/21 04:13:57;;;;;;;2.40;1.40;;;21.10;29.80;;;;;;5043803;28;20043;-48
2021/12/21 04:16:23;;;;;;;2.17;1.30;;;21.10;29.80;;;;;;5053511;28;20025;-48
2021/12/21 04:18:49;;;;;;;2.17;1.38;;;21.10;29.80;;;;;;5053491;28;20028;-50
2021/12/21 04:21:15;;;;;;;2.45;1.30;;;21.10;29.80;;;;;;5053995;28;20060;-47
2021/12/21 04:23:42;;;;;;;3.10;1.45;;;21.10;29.80;;;;;;5053836;28;20043;-50
2021/12/21 04:26:10;;;;;;;2.95;1.25;;;21.10;29.80;;;;;;5047271;28;20021;-44
2021/12/21 04:28:36;;;;;;;2.70;1.50;;;21.10;29.80;;;;;;5045545;28;20029;-46
2021/12/21 04:31:03;;;;;;;3.08;1.40;;;21.10;29.80;;;;;;5058728;28;20021;-51
2021/12/21 04:33:29;;;;;;;1.98;1.33;;;21.10;29.80;;;;;;5056902;28;20454;-47
2021/12/21 04:35:55;;;;;;;2.08;1.30;;;21.10;29.80;;;;;;5057944;28;20024;-48
2021/12/21 04:38:23;;;;;;;2.92;1.30;;;21.10;29.80;;;;;;5057543;28;20039;-52
2021/12/21 04:40:55;;;;;;;2.92;1.40;;;21.10;29.80;;;;;;5058807;28;20033;-47
2021/12/21 04:43:21;;;;;;;3.60;1.20;;;21.00;29.80;;;;;;5056699;28;20103;-49
2021/12/21 04:45:47;;;;;;;3.08;1.23;;;21.00;29.80;;;;;;5056513;28;20067;-47
2021/12/21 04:48:12;;;;;;;2.50;1.30;;;21.00;29.80;;;;;;5058075;28;20032;-45
2021/12/21 04:50:39;;;;;;;2.65;1.50;;;21.00;29.80;;;;;;5056874;28;20029;-47
2021/12/21 04:53:05;;;;;;;2.22;1.20;;;21.00;29.80;;;;;;5047683;28;20086;-51
2021/12/21 04:55:31;;;;;;;2.80;1.42;;;21.00;29.80;;;;;;5057241;28;20100;-46
2021/12/21 04:57:57;;;;;;;3.30;1.40;;;21.00;29.80;;;;;;5057529;28;20120;-49
2021/12/21 05:00:23;;;;;;;2.63;1.50;;;21.00;29.80;;;;;;5056196;28;20040;-46
2021/12/21 05:02:49;;;;;;;3.70;1.58;;;21.00;29.80;;;;;;5038554;28;20180;-44
2021/12/21 05:05:15;;;;;;;3.28;1.17;;;21.00;29.70;;;;;;5057075;28;20111;-55
2021/12/21 05:07:43;;;;;;;2.80;1.23;;;21.00;29.70;;;;;;5043814;28;20030;-55
2021/12/21 05:10:11;;;;;;;2.03;1.27;;;21.00;29.70;;;;;;5038692;28;20444;-53
2021/12/21 05:12:37;;;;;;;2.60;1.52;;;21.00;29.70;;;;;;5037480;28;20456;-49
2021/12/21 05:15:04;;;;;;;2.25;1.45;;;21.00;29.70;;;;;;5056847;28;20103;-51
2021/12/21 05:17:30;;;;;;;2.15;1.20;;;21.00;29.70;;;;;;5056394;28;20447;-50
2021/12/21 05:19:56;;;;;;;2.00;1.30;;;21.00;29.60;;;;;;5056584;28;20032;-48
2021/12/21 05:22:23;;;;;;;2.70;1.35;;;21.00;29.60;;;;;;5038426;28;20088;-47
2021/12/21 05:24:50;;;;;;;2.00;1.30;;;21.00;29.60;;;;;;5054816;28;20021;-51
2021/12/21 05:27:17;;;;;;;2.13;1.13;;;21.00;29.60;;;;;;5056583;28;20047;-50
2021/12/21 05:29:42;;;;;;;2.05;1.40;;;21.00;29.60;;;;;;5039458;28;20116;-49
2021/12/21 05:32:08;;;;;;;1.65;1.10;;;20.90;29.60;;;;;;5039869;28;20109;-49
2021/12/21 05:34:34;;;;;;;3.17;1.50;;;20.90;29.50;;;;;;5053177;28;20037;-48
2021/12/21 05:37:05;;;;;;;2.83;1.40;;;20.90;29.60;;;;;;5055760;28;20079;-45
2021/12/21 05:39:39;;;;;;;2.45;1.30;;;20.90;29.60;;;;;;5057177;28;20021;-45
2021/12/21 05:42:06;;;;;;;;;;;20.90;29.60;;;;;;5039079;28;20433;-49
2021/12/21 05:44:32;;;;;;;1.85;1.30;;;20.90;29.60;;;;;;5052077;28;20332;-49
2021/12/21 05:46:58;;;;;;;2.75;1.20;;;20.90;29.60;;;;;;5055941;28;20036;-49
2021/12/21 05:49:24;;;;;;;2.60;1.50;;;20.90;29.60;;;;;;5056582;28;20025;-47
2021/12/21 05:51:50;;;;;;;2.95;1.17;;;20.90;29.50;;;;;;5053575;28;20029;-47
2021/12/21 05:54:21;;;;;;;2.75;1.20;;;20.90;29.50;;;;;;5056711;28;20020;-49
2021/12/21 05:56:47;;;;;;;1.52;1.10;;;20.90;29.50;;;;;;5041406;28;20112;-48
2021/12/21 05:59:13;;;;;;;2.10;1.13;;;20.80;29.50;;;;;;5049843;28;20089;-49
2021/12/21 06:01:39;;;;;;;2.25;1.10;;;20.90;29.50;;;;;;5040077;28;20033;-50
2021/12/21 06:04:05;;;;;;;2.45;1.15;;;20.80;29.40;;;;;;5048413;28;20029;-49
2021/12/21 06:06:32;;;;;;;2.92;1.23;;;20.80;29.40;;;;;;5051716;28;20029;-45
2021/12/21 06:09:03;;;;;;;1.92;1.10;;;20.80;29.40;;;;;;5052177;28;20025;-50
2021/12/21 06:11:30;;;;;;;2.35;1.05;;;20.80;29.40;;;;;;5023196;28;20444;-51
2021/12/21 06:27:23;;;;;;;2.42;1.17;;;20.80;29.40;;;;;;5043527;28;20091;-46
2021/12/21 06:29:49;;;;;;;2.53;1.30;;;20.80;29.40;;;;;;5055192;28;20017;-47
2021/12/21 06:32:15;;;;;;;2.72;1.55;;;20.80;29.40;;;;;;5048019;28;20044;-50
2021/12/21 06:34:41;;;;;;;2.45;1.20;;;20.80;29.40;;;;;;5048917;28;20077;-50
2021/12/21 06:37:07;;;;;;;2.10;1.20;;;20.70;29.30;;;;;;5038561;28;20116;-48
2021/12/21 06:39:33;;;;;;;1.70;1.00;;;20.80;29.40;;;;;;5055589;28;20035;-52
2021/12/21 06:42:01;;;;;;;2.03;1.20;;;20.80;29.40;;;;;;5046393;28;20017;-47
2021/12/21 06:44:27;;;;;;;2.03;1.00;;;20.80;29.40;;;;;;5051180;28;20028;-51
2021/12/21 06:51:06;;;;;;;2.17;1.17;;;20.80;29.40;;;;;;5054543;28;20039;-51
2021/12/21 06:52:24;;;;;;;1.80;1.10;;;20.80;29.40;;;;;;5042211;28;20044;-47
2021/12/21 06:54:50;;;;;;;2.40;1.27;;;20.70;29.40;;;;;;5039498;28;20036;-48
2021/12/21 06:57:16;;;;;;;2.50;1.40;;;20.70;29.40;;;;;;5040830;28;20037;-53
2021/12/21 06:59:42;;;;;;;2.22;1.15;;;20.70;29.40;;;;;;5039782;28;20436;-51
2021/12/21 07:02:08;;;;;;;2.40;1.30;;;20.70;29.40;;;;;;5050673;28;20039;-49
2021/12/21 07:04:34;;;;;;;2.65;1.30;;;20.70;29.40;;;;;;5044303;28;20040;-52
2021/12/21 07:07:00;;;;;;;1.95;1.15;;;20.70;29.40;;;;;;5049585;28;20025;-49
2021/12/21 07:09:40;;;;;;;2.45;1.20;;;20.70;29.40;;;;;;5053556;28;20504;-46
2021/12/21 07:20:08;;;;;;;3.58;1.27;;;20.70;29.40;;;;;;5040165;28;20087;-52
2021/12/21 07:22:34;;;;;;;2.67;1.45;;;20.60;29.40;;;;;;5053814;28;20432;-48
2021/12/21 07:25:00;;;;;;;1.90;1.25;;;20.60;29.30;;;;;;5039948;28;20044;-48
2021/12/21 07:27:26;;;;;;;1.50;1.20;;;20.60;29.40;;;;;;5056711;28;20024;-47
2021/12/21 07:29:52;;;;;;;4.18;1.40;;;20.60;29.40;;;;;;5055124;28;20025;-49
2021/12/21 07:32:18;;;;;;;2.40;1.38;;;20.60;29.30;;;;;;5054677;28;20043;-48
2021/12/21 07:34:43;;;;;;;2.42;1.40;;;20.60;29.30;;;;;;5058839;28;20024;-51
2021/12/21 07:37:10;;;;;;;1.75;1.27;;;20.60;29.30;;;;;;5053965;28;20079;-49
2021/12/21 07:39:37;;;;;;;3.63;1.48;;;20.60;29.30;;;;;;5054966;28;20025;-48
2021/12/21 07:42:05;;;;;;;3.65;1.52;;;20.60;29.30;;;;;;5049607;28;20422;-50
2021/12/21 07:44:31;;;;;;;3.33;1.45;;;20.60;29.30;;;;;;5053858;28;20087;-48
2021/12/21 07:46:57;;;;;;;2.85;1.55;;;20.60;29.30;;;;;;5055035;28;20028;-51
2021/12/21 07:49:23;;;;;;;3.85;1.60;;;20.60;29.30;;;;;;5051843;28;20021;-49
2021/12/21 07:51:49;;;;;;;2.10;1.45;;;20.60;29.30;;;;;;5049611;28;20032;-47
2021/12/21 07:54:17;;;;;;;3.10;1.60;;;20.60;29.20;;;;;;5053566;28;20055;-51
2021/12/21 07:56:45;;;;;;;2.60;1.50;;;20.60;29.20;;;;;;5051115;28;20036;-52
2021/12/21 07:59:11;;;;;;;3.05;1.50;;;20.60;29.20;;;;;;5049482;28;20049;-50
2021/12/21 08:01:39;;;;;;;4.03;1.73;;;20.60;29.20;;;;;;5052160;28;20027;-52
2021/12/21 08:04:07;;;;;;;3.33;1.60;;;20.60;29.30;;;;;;5049421;28;20034;-53
2021/12/21 08:06:34;;;;;;;3.33;1.70;;;20.50;29.20;;;;;;5045369;28;20078;-48
2021/12/21 08:09:02;;;;;;;1.95;1.48;;;20.60;29.30;;;;;;5052558;28;20035;-54
2021/12/21 08:14:01;;;;;;;1.63;1.20;;;20.50;29.30;;;;;;5051888;28;20040;-48
2021/12/21 08:16:27;;;;;;;2.75;1.63;;;20.50;29.30;;;;;;5042039;28;20021;-48
2021/12/21 08:18:53;;;;;;;3.00;1.35;;;20.50;29.30;;;;;;5036794;28;20025;-50
2021/12/21 08:21:22;;;;;;;2.38;1.40;;;20.50;29.30;;;;;;5045199;28;20040;-49
2021/12/21 08:23:47;;;;;;;2.95;1.52;;;20.60;29.40;;;;;;5039777;28;20044;-48
2021/12/21 08:26:13;;;;;;;2.63;1.20;;;20.50;29.30;;;;;;5042877;28;20356;-50
2021/12/21 08:28:39;;;;;;;2.60;1.80;;;20.50;29.30;;;;;;5054183;28;20036;-46
2021/12/21 08:31:10;;;;;;;2.78;1.50;;;20.60;29.30;;;;;;5034823;28;20403;-47
2021/12/21 08:33:37;;;;;;;2.72;1.70;;;20.50;29.80;;;;;;5039701;28;20017;-51
2021/12/21 08:36:07;;;;;;;2.83;1.48;;;20.50;29.30;;;;;;5053948;28;20104;-51
2021/12/21 08:38:36;;;;;;;3.15;1.48;;;20.50;29.30;;;;;;5026878;28;20125;-55
2021/12/21 08:41:03;;;;;;;2.85;1.38;;;20.60;29.30;;;;;;5041703;28;20035;-49
2021/12/21 08:43:31;;;;;;;3.78;1.73;;;20.50;29.30;;;;;;5047543;28;20331;-50
2021/12/21 08:45:57;;;;;;;3.20;1.73;;;20.60;29.40;;;;;;5053032;28;20029;-48
2021/12/21 08:48:25;;;;;;;3.30;1.48;;;20.50;29.30;;;;;;5048671;28;20033;-50
2021/12/21 08:50:54;;;;;;;2.70;1.42;;;20.50;29.30;;;;;;5046582;28;20033;-52
2021/12/21 08:53:21;;;;;;;3.00;1.80;;;20.50;29.30;;;;;;5054353;28;20033;-52
2021/12/21 08:55:47;;;;;;;3.20;1.50;;;20.50;29.30;;;;;;5048982;28;20108;-55
2021/12/21 08:58:14;;;;;;;3.28;1.80;;;20.50;29.30;;;;;;5051177;28;20029;-45
2021/12/21 09:00:41;;;;;;;2.75;1.52;;;20.50;29.30;;;;;;5053351;28;20098;-54
2021/12/21 09:03:08;;;;;;;3.10;1.40;;;20.50;29.30;;;;;;5053225;28;20113;-47
2021/12/21 09:05:35;;;;;;;2.95;1.48;;;20.50;29.30;;;;;;5040719;28;20033;-48
2021/12/21 09:08:03;;;;;;;3.33;1.80;;;20.50;29.30;;;;;;5033913;28;20033;-50
2021/12/21 09:10:31;;;;;;;2.65;1.40;;;20.50;29.30;;;;;;5049628;28;20090;-50
2021/12/21 09:12:58;;;;;;;2.50;1.27;;;20.50;29.40;;;;;;5055446;28;20036;-46
2021/12/21 09:15:25;;;;;;;2.40;1.48;;;20.50;29.40;;;;;;5038783;28;20052;-50
2021/12/21 09:17:52;;;;;;;2.10;1.45;;;20.50;29.30;;;;;;5056770;28;20041;-49
2021/12/21 09:20:22;;;;;;;2.17;1.63;;;20.50;29.30;;;;;;5057539;28;20021;-53
2021/12/21 09:22:50;;;;;;;3.33;1.65;;;20.50;29.30;;;;;;5057399;28;20073;-51
2021/12/21 09:25:16;;;;;;;2.85;1.63;;;20.50;29.30;;;;;;5056843;28;20049;-48
2021/12/21 09:27:43;;;;;;;3.30;1.80;;;20.50;29.30;;;;;;5056437;28;20029;-48
2021/12/21 09:30:13;;;;;;;2.53;1.70;;;20.40;29.20;;;;;;5055207;28;20428;-53
2021/12/21 09:32:40;;;;;;;2.63;1.63;;;20.50;29.20;;;;;;5057389;28;20331;-56
2021/12/21 09:35:07;;;;;;;3.05;1.52;;;20.40;29.20;;;;;;5056685;28;20025;-51
2021/12/21 09:37:34;;;;;;;3.08;1.48;;;20.50;29.20;;;;;;5057609;28;20037;-56
2021/12/21 09:40:03;;;;;;;3.08;1.42;;;20.40;29.10;;;;;;5056854;28;20100;-54
2021/12/21 09:42:31;;;;;;;2.60;1.90;;;20.40;29.10;;;;;;5055392;28;20510;-54
2021/12/21 09:45:06;;;;;;;2.75;1.70;;;20.40;29.10;;;;;;5037102;28;20053;-48
2021/12/21 09:47:33;;;;;;;3.20;1.70;;;20.40;29.10;;;;;;5056295;28;20387;-50
2021/12/21 09:50:00;;;;;;;3.30;1.80;;;20.40;29.00;;;;;;5055991;28;20422;-51
2021/12/21 09:52:32;;;;;;;2.88;1.50;;;20.40;29.00;;;;;;5035936;28;20039;-50
2021/12/21 09:55:00;;;;;;;4.20;2.10;;;20.40;29.00;;;;;;5055167;28;20029;-49
2021/12/21 09:57:26;;;;;;;3.72;2.10;;;20.40;29.00;;;;;;5056314;28;20025;-55
2021/12/21 09:59:53;;;;;;;3.45;1.65;;;20.40;29.00;;;;;;5056222;28;20032;-47
2021/12/21 10:02:22;;;;;;;2.63;1.88;;;20.40;29.00;;;;;;5036552;28;20128;-48
2021/12/21 10:04:51;;;;;;;2.55;1.58;;;20.40;29.00;;;;;;5053517;28;20043;-49
2021/12/21 10:07:20;;;;;;;2.65;1.70;;;20.40;29.00;;;;;;5056665;28;20029;-49
2021/12/21 10:09:47;;;;;;;3.40;2.10;;;20.40;29.00;;;;;;5055806;28;20103;-53
2021/12/21 10:12:28;;;;;;;3.33;1.92;;;20.40;29.00;;;;;;5056296;28;20047;-49
2021/12/21 10:15:22;;;;;;;2.80;1.88;;;20.40;29.00;;;;;;5056468;28;20095;-49
2021/12/21 10:18:00;;;;;;;3.88;2.25;;;20.40;28.90;;;;;;5056397;28;20028;-45
2021/12/21 10:20:46;;;;;;;3.25;1.73;;;20.40;29.00;;;;;;5056143;28;20032;-50
2021/12/21 10:23:16;;;;;;;3.03;1.83;;;20.40;28.90;;;;;;5055703;28;20020;-49
2021/12/21 10:25:56;;;;;;;3.13;2.15;;;20.40;29.00;;;;;;5056246;28;20047;-49
2021/12/21 10:28:34;;;;;;;3.30;2.03;;;20.40;28.90;;;;;;5054989;28;20070;-53
2021/12/21 10:31:04;;;;;;;3.03;2.28;;;20.40;29.00;;;;;;5056268;28;20041;-45
2021/12/21 10:33:31;;;;;;;3.47;2.45;;;20.40;29.00;;;;;;5056079;28;20032;-48
2021/12/21 10:35:59;;;;;;;4.32;2.40;;;20.40;29.00;;;;;;5056220;28;20087;-48
2021/12/21 10:38:37;;;;;;;3.35;2.10;;;20.40;28.90;;;;;;5056259;28;20029;-46
2021/12/21 10:41:12;;;;;;;3.88;2.25;;;20.40;28.90;;;;;;5055668;28;20039;-47
2021/12/21 10:43:39;;;;;;;3.90;2.03;;;20.40;28.90;;;;;;5055912;28;20021;-46
2021/12/21 10:46:05;;;;;;;5.32;2.30;;;20.40;29.00;;;;;;5056100;28;20027;-49
2021/12/21 10:48:35;;;;;;;2.90;2.13;;;20.40;29.00;;;;;;5055298;28;20036;-51
2021/12/21 10:51:02;;;;;;;2.38;1.95;;;20.40;28.90;;;;;;5054871;28;20487;-46
2021/12/21 10:53:28;;;;;;;3.08;2.00;;;20.40;28.90;;;;;;5055997;28;20035;-50
2021/12/21 10:56:08;;;;;;;3.58;2.10;;;20.40;29.00;;;;;;5055998;28;20430;-50
2021/12/21 10:58:42;;;;;;;3.70;1.92;;;20.40;28.90;;;;;;5055902;28;20336;-48
2021/12/21 11:01:12;;;;;;;3.75;1.92;;;20.40;28.90;;;;;;5054949;28;20120;-52
2021/12/21 11:03:50;;;;;;;2.95;1.80;;;20.40;28.90;;;;;;5052892;28;20290;-51
2021/12/21 11:06:19;;;;;;;2.47;1.80;;;20.40;29.00;;;;;;5031303;28;20317;-49
2021/12/21 11:08:49;;;;;;;2.22;1.50;;;20.40;29.10;;;;;;5050695;28;20036;-50
2021/12/21 11:11:34;;;;;;;3.47;1.77;;;20.40;29.40;;;;;;5054790;28;20417;-50
2021/12/21 11:14:10;;;;;;;2.08;1.50;;;20.50;29.80;;;;;;5055111;28;20021;-52
2021/12/21 11:16:44;;;;;;;2.80;1.60;;;20.50;30.00;;;;;;5054084;28;20332;-50
2021/12/21 11:19:13;;;;;;;2.42;1.60;;;20.60;30.20;;;;;;5053762;28;20033;-48
2021/12/21 11:21:40;;;;;;;1.75;1.40;;;20.60;30.40;;;;;;5054980;28;20328;-46
2021/12/21 11:24:11;;;;;;;2.75;1.67;;;20.60;30.50;;;;;;5054982;28;20052;-50
2021/12/21 11:26:39;;;;;;;2.35;1.38;;;20.70;30.60;;;;;;5054713;28;20039;-55
2021/12/21 11:29:10;;;;;;;2.33;1.50;;;20.70;30.70;;;;;;5035358;28;20043;-53
2021/12/21 11:31:46;;;;;;;3.30;1.80;;;20.70;30.80;;;;;;5053854;28;20033;-45
2021/12/21 11:34:16;;;;;;;2.10;1.50;;;20.80;30.90;;;;;;5055078;28;20036;-53
2021/12/21 11:39:33;;;;;;;2.20;1.27;;;20.80;31.10;;;;;;5054582;28;20336;-47
2021/12/21 11:42:01;;;;;;;5.15;1.30;;;20.90;31.10;;;;;;5038761;28;20313;-49
2021/12/21 11:44:50;;;;;;;3.72;1.70;;;20.90;31.20;;;;;;5037778;28;20035;-49
2021/12/21 11:47:24;;;;;;;1.80;1.15;;;21.00;31.30;;;;;;5044198;28;20033;-48
2021/12/21 11:49:55;;;;;;;2.45;1.50;;;21.00;31.30;;;;;;5038077;28;20033;-49
2021/12/21 11:52:24;;;;;;;2.38;1.33;;;21.00;31.30;;;;;;5044253;28;20083;-51
2021/12/21 11:54:56;;;;;;;2.13;1.40;;;21.00;31.30;;;;;;5048184;28;20444;-48
2021/12/21 11:57:36;;;;;;;3.72;1.45;;;21.10;31.40;;;;;;5047087;28;20021;-49
2021/12/21 12:00:10;;;;;;;5.22;1.73;;;21.10;31.40;;;;;;5047605;28;20029;-47
2021/12/21 12:02:38;;;;;;;2.88;1.50;;;21.10;31.50;;;;;;5040497;28;20060;-48
2021/12/21 12:05:16;;;;;;;4.25;1.88;;;21.10;31.50;;;;;;5048867;28;20025;-50
2021/12/21 12:07:42;;;;;;;3.22;1.45;;;21.20;31.50;;;;;;5041703;28;20029;-49
2021/12/21 12:10:14;;;;;;;3.10;1.17;;;21.20;31.50;;;;;;5044762;28;20335;-53
2021/12/21 12:12:40;;;;;;;2.67;1.30;;;21.30;31.30;;;;;;5050984;28;20087;-46
2021/12/21 12:15:09;;;;;;;1.38;0.90;;;21.20;31.30;;;;;;5040684;28;20504;-45
2021/12/21 12:17:46;;;;;;;1.80;1.05;;;21.30;31.40;;;;;;5023173;28;20025;-46
2021/12/21 12:20:14;;;;;;;3.58;1.05;;;21.30;31.40;;;;;;5037138;28;20064;-49
2021/12/21 12:22:43;;;;;;;3.08;1.65;;;21.30;31.50;;;;;;5042047;28;20359;-46
2021/12/21 12:25:26;;;;;;;5.22;1.55;;;21.30;31.60;;;;;;5048753;28;20108;-50
2021/12/21 12:27:53;;;;;;;3.53;1.30;;;21.40;31.70;;;;;;5050958;28;20017;-46
2021/12/21 12:30:27;;;;;;;3.75;1.30;;;21.40;31.80;;;;;;5044497;28;20044;-51
2021/12/21 12:33:02;;;;;;;3.28;1.17;;;21.40;31.90;;;;;;5046014;28;20384;-54
2021/12/21 12:35:32;;;;;;;2.13;1.00;;;21.40;31.90;;;;;;5046925;28;20029;-47
2021/12/21 12:38:05;;;;;;;2.58;1.30;;;21.50;32.00;;;;;;5046722;28;20025;-52
2021/12/21 12:40:47;;;;;;;3.70;0.90;;;21.50;32.00;;;;;;5050007;28;20356;-51
2021/12/21 12:43:18;;;;;;;6.18;1.00;;;21.60;32.10;;;;;;5051675;28;20332;-48
2021/12/21 12:45:54;;;;;;;3.55;1.25;;;21.70;32.10;;;;;;5046607;28;20025;-50
2021/12/21 12:48:22;;;;;;;3.85;1.00;;;21.70;32.10;;;;;;5050694;28;20025;-51
2021/12/21 12:50:50;;;;;;;2.85;1.30;;;21.80;32.00;;;;;;5049496;28;20033;-50
2021/12/21 12:53:16;;;;;;;3.20;1.00;;;21.90;32.00;;;;;;5051469;28;20132;-48
2021/12/21 12:55:58;;;;;;;2.20;1.05;;;21.90;32.00;;;;;;5051163;28;20037;-48
2021/12/21 12:58:28;;;;;;;2.13;0.73;;;22.10;32.00;;;;;;5049231;28;20025;-54
2021/12/21 13:01:06;;;;;;;2.45;0.90;;;22.10;31.90;;;;;;5051617;28;20099;-49
2021/12/21 13:03:35;;;;;;;4.95;1.20;;;22.20;31.80;;;;;;5052621;28;20055;-50
2021/12/21 13:06:17;;;;;;;1.52;0.90;;;22.20;31.80;;;;;;5048159;28;20036;-47
2021/12/21 13:08:44;;;;;;;2.25;1.05;;;22.30;31.70;;;;;;5051401;28;20451;-52
2021/12/21 13:11:11;;;;;;;1.35;0.90;;;22.30;31.60;;;;;;5054216;28;20037;-51
2021/12/21 13:13:43;;;;;;;1.85;0.88;;;22.40;31.50;;;;;;5057022;28;20107;-50
2021/12/21 13:16:20;;;;;;;3.40;1.45;;;22.50;31.40;;;;;;5052273;28;20416;-50
2021/12/21 13:18:55;;;;;;;5.88;1.10;;;22.50;31.20;;;;;;5052237;28;20025;-52
2021/12/21 13:21:26;;;;;;;1.95;0.82;;;22.60;31.00;;;;;;5050336;28;20091;-49
2021/12/21 13:24:01;;;;;;;1.33;0.90;;;22.60;30.90;;;;;;5048817;28;20024;-47
2021/12/21 13:26:36;;;;;;;1.80;0.80;;;22.60;30.70;;;;;;5051501;28;21680;-52
2021/12/21 13:29:04;;;;;;;1.65;1.13;;;22.60;30.50;;;;;;5051732;28;20400;-49
2021/12/21 13:31:30;;;;;;;1.02;0.68;;;22.60;30.40;;;;;;5049138;28;20040;-50
2021/12/21 13:33:59;;;;;;;1.30;0.63;;;22.60;30.20;;;;;;5050540;28;20017;-53
2021/12/21 13:36:38;;;;;;;1.42;0.75;;;22.70;30.10;;;;;;5050909;28;20488;-52
2021/12/21 13:39:20;;;;;;;0.93;0.68;;;22.70;30.40;;;;;;5050529;28;20114;-49
2021/12/21 13:42:02;;;;;;;1.48;0.80;;;22.70;30.60;;;;;;5050651;28;20033;-50
2021/12/21 13:44:38;;;;;;;0.90;0.70;;;22.80;30.90;;;;;;5047283;28;20044;-47
2021/12/21 13:47:16;;;;;;;1.27;0.70;;;22.80;31.00;;;;;;5046330;28;20100;-53
2021/12/21 13:49:56;;;;;;;1.02;0.70;;;22.90;31.20;;;;;;5050996;28;20043;-56
2021/12/21 13:52:25;;;;;;;1.77;0.85;;;22.90;31.20;;;;;;5051693;28;20552;-51
2021/12/21 13:54:52;;;;;;;2.83;1.20;;;22.90;31.30;;;;;;5048480;28;20025;-51
2021/12/21 13:57:20;;;;;;;1.70;0.95;;;22.90;31.20;;;;;;5050354;28;20420;-50
2021/12/21 13:59:55;;;;;;;2.55;0.85;;;23.00;31.30;;;;;;5046188;28;20027;-46
2021/12/21 14:02:33;;;;;;;2.45;1.17;;;23.00;31.20;;;;;;5051405;28;20041;-50